Time;durP1;ratioP1;P1;durP2;ratioP2;P2;SDS_P1;SDS_P2;PMS_P1;PMS_P2;Temp;Humidity;BMP_temperature;BMP_pressure;BME280_temperature;BME280_humidity;BME280_pressure;Samples;Min_cycle;Max_cycle;Signal;HPM_P1;HPM_P2
2023/03/30 00:00:17;;;;;;;8.10;4.87;;;9.80;99.90;;;;;;5077836;28;20206;-77
2023/03/30 00:02:44;;;;;;;7.47;4.83;;;9.60;99.90;;;;;;5072329;28;20255;-77
2023/03/30 00:05:12;;;;;;;7.30;5.10;;;9.60;99.90;;;;;;5081256;28;20649;-77
2023/03/30 00:07:41;;;;;;;6.93;4.53;;;9.50;99.90;;;;;;5071483;28;20556;-77
2023/03/30 00:10:09;;;;;;;6.17;4.50;;;9.60;99.90;;;;;;5065355;28;20234;-77
2023/03/30 00:12:37;;;;;;;6.07;4.43;;;9.50;99.90;;;;;;5071827;28;20207;-77
2023/03/30 00:18:23;;;;;;;7.70;4.90;;;9.60;99.90;;;;;;4890937;23;20246;-73
2023/03/30 00:20:51;;;;;;;10.13;5.50;;;9.50;99.90;;;;;;5067516;28;20236;-73
2023/03/30 00:23:18;;;;;;;7.40;4.80;;;9.40;99.90;;;;;;5075501;28;20205;-73
2023/03/30 00:25:46;;;;;;;6.23;4.20;;;9.40;99.90;;;;;;5072443;28;20206;-73
2023/03/30 00:28:14;;;;;;;6.70;4.13;;;9.50;99.90;;;;;;5073522;28;20222;-73
2023/03/30 00:30:41;;;;;;;6.63;4.47;;;9.60;99.90;;;;;;5075527;28;20209;-73
2023/03/30 00:33:08;;;;;;;8.20;4.53;;;9.80;99.90;;;;;;5071963;28;20683;-73
2023/03/30 00:35:36;;;;;;;7.27;4.70;;;9.70;99.90;;;;;;5072154;28;20209;-73
2023/03/30 00:38:03;;;;;;;4.80;4.00;;;9.90;99.90;;;;;;5071819;28;20214;-73
2023/03/30 00:40:32;;;;;;;7.13;4.40;;;9.80;99.90;;;;;;5071795;28;20206;-73
2023/03/30 00:43:00;;;;;;;7.60;4.30;;;9.70;99.90;;;;;;5077043;28;20202;-73
2023/03/30 00:45:28;;;;;;;5.07;4.03;;;9.50;99.90;;;;;;5071865;28;20256;-73
2023/03/30 00:48:03;;;;;;;5.53;4.03;;;9.40;99.90;;;;;;5071702;28;20261;-73
2023/03/30 00:50:35;;;;;;;7.60;4.47;;;9.40;99.90;;;;;;5084793;28;20201;-73
2023/03/30 00:53:08;;;;;;;5.70;4.00;;;9.40;99.90;;;;;;5092317;28;20194;-73
2023/03/30 00:55:38;;;;;;;7.83;4.20;;;9.30;99.90;;;;;;5094025;28;20574;-73
2023/03/30 00:58:08;;;;;;;6.97;4.30;;;9.30;99.90;;;;;;5092084;28;20679;-73
2023/03/30 01:00:37;;;;;;;5.20;3.80;;;9.30;99.90;;;;;;5095920;28;20255;-73
2023/03/30 01:03:10;;;;;;;5.80;4.00;;;9.30;99.90;;;;;;5096135;28;20201;-73
2023/03/30 01:05:38;;;;;;;6.93;4.27;;;9.30;99.90;;;;;;5095947;28;20213;-73
2023/03/30 01:08:07;;;;;;;5.70;3.83;;;9.20;99.90;;;;;;5092296;28;20201;-73
2023/03/30 01:10:34;;;;;;;6.50;4.10;;;9.20;99.90;;;;;;5097542;28;20251;-73
2023/03/30 01:13:01;;;;;;;6.13;4.20;;;9.30;99.90;;;;;;5095921;28;20607;-73
2023/03/30 01:15:33;;;;;;;4.57;3.70;;;9.30;99.90;;;;;;5091905;28;20208;-73
2023/03/30 01:18:10;;;;;;;7.10;3.57;;;9.40;99.90;;;;;;5091721;28;20221;-73
2023/03/30 01:21:04;;;;;;;6.07;3.77;;;9.40;99.90;;;;;;5091527;28;20208;-73
2023/03/30 01:24:02;;;;;;;5.50;3.67;;;9.40;99.90;;;;;;5091657;28;20206;-73
2023/03/30 01:26:53;;;;;;;6.77;4.27;;;9.30;99.90;;;;;;5091439;28;20208;-73
2023/03/30 01:29:44;;;;;;;6.17;4.03;;;9.40;99.90;;;;;;5091583;28;20570;-73
2023/03/30 01:33:04;;;;;;;6.70;3.97;;;9.30;99.90;;;;;;5092036;28;20205;-73
2023/03/30 01:35:59;;;;;;;7.00;3.70;;;9.40;99.90;;;;;;5059632;28;20202;-73
2023/03/30 01:38:55;;;;;;;8.23;4.20;;;9.40;99.90;;;;;;5091614;28;20232;-73
2023/03/30 01:41:31;;;;;;;5.90;3.57;;;9.50;99.90;;;;;;5085711;28;20637;-73
2023/03/30 01:44:04;;;;;;;6.37;3.90;;;9.40;99.90;;;;;;5087583;28;20247;-73
2023/03/30 01:46:34;;;;;;;6.07;4.23;;;9.50;99.90;;;;;;5095157;28;20232;-73
2023/03/30 01:49:14;;;;;;;8.63;4.03;;;9.50;99.90;;;;;;5095242;28;20190;-73
2023/03/30 01:51:47;;;;;;;5.67;3.57;;;9.40;99.90;;;;;;5095293;28;20202;-73
2023/03/30 01:54:18;;;;;;;5.67;3.83;;;9.20;99.90;;;;;;5102467;28;20212;-73
2023/03/30 01:56:50;;;;;;;7.23;4.63;;;9.10;99.90;;;;;;5097510;28;20210;-73
2023/03/30 01:59:24;;;;;;;5.23;3.63;;;9.00;99.90;;;;;;5099280;28;20244;-73
2023/03/30 02:01:53;;;;;;;6.73;4.10;;;8.90;99.90;;;;;;5094633;28;20274;-73
2023/03/30 02:04:23;;;;;;;7.30;4.27;;;8.80;99.90;;;;;;5100208;28;20659;-73
2023/03/30 02:06:55;;;;;;;6.90;3.70;;;8.70;99.90;;;;;;5095069;28;20223;-73
2023/03/30 02:09:25;;;;;;;8.93;4.40;;;8.70;99.90;;;;;;5099832;28;20201;-73
2023/03/30 02:11:54;;;;;;;5.23;3.70;;;8.90;99.90;;;;;;5094732;28;20636;-73
2023/03/30 02:14:25;;;;;;;6.07;3.83;;;8.80;99.90;;;;;;5095676;28;20237;-73
2023/03/30 02:16:57;;;;;;;4.33;3.53;;;8.90;99.90;;;;;;5091291;28;20212;-73
2023/03/30 02:19:24;;;;;;;4.47;3.87;;;9.00;99.90;;;;;;5094662;28;20228;-73
2023/03/30 02:21:51;;;;;;;5.83;3.97;;;8.80;99.90;;;;;;5097660;28;20216;-73
2023/03/30 02:24:22;;;;;;;7.37;3.80;;;9.20;99.90;;;;;;5095083;28;20206;-73
2023/03/30 02:26:51;;;;;;;6.97;4.00;;;9.10;99.90;;;;;;5088548;28;20202;-73
2023/03/30 02:29:21;;;;;;;7.90;4.00;;;9.30;99.90;;;;;;5096874;28;20267;-73
2023/03/30 02:31:50;;;;;;;29.87;17.43;;;9.40;99.90;;;;;;5095028;28;20304;-73
2023/03/30 02:34:31;;;;;;;8.03;4.93;;;9.20;99.90;;;;;;5095497;28;20209;-73
2023/03/30 02:37:18;;;;;;;9.20;4.30;;;9.20;99.90;;;;;;5088396;28;20231;-73
2023/03/30 02:39:55;;;;;;;5.87;3.93;;;9.20;99.90;;;;;;5094562;28;20220;-73
2023/03/30 02:42:45;;;;;;;6.33;3.70;;;9.40;99.90;;;;;;5091450;28;20205;-73
2023/03/30 02:45:23;;;;;;;5.53;3.80;;;9.60;99.90;;;;;;5096770;28;20587;-73
2023/03/30 02:48:01;;;;;;;4.87;3.50;;;9.60;99.90;;;;;;5093663;28;20202;-73
2023/03/30 02:50:36;;;;;;;7.87;3.70;;;9.60;99.90;;;;;;5090659;28;20208;-73
2023/03/30 02:53:12;;;;;;;5.23;3.60;;;9.70;99.90;;;;;;5092617;28;20205;-73
2023/03/30 02:55:46;;;;;;;4.73;3.40;;;9.80;99.90;;;;;;5096171;28;20208;-72
2023/03/30 02:58:17;;;;;;;6.47;3.40;;;10.20;99.90;;;;;;5094783;28;20221;-72
2023/03/30 03:00:50;;;;;;;5.83;3.17;;;10.10;99.90;;;;;;5091118;28;20244;-72
2023/03/30 03:03:23;;;;;;;4.27;2.90;;;10.30;99.90;;;;;;5096488;28;20209;-72
2023/03/30 03:05:52;;;;;;;5.70;3.33;;;10.20;99.90;;;;;;5090562;28;20208;-72
2023/03/30 03:08:22;;;;;;;6.57;3.30;;;10.70;99.90;;;;;;5090415;28;20206;-72
2023/03/30 03:10:49;;;;;;;6.93;3.10;;;11.00;99.90;;;;;;5093059;28;20267;-72
2023/03/30 03:13:19;;;;;;;5.40;3.20;;;10.80;99.90;;;;;;5090582;28;20237;-72
2023/03/30 03:15:48;;;;;;;5.23;3.10;;;10.80;99.90;;;;;;5092025;28;20216;-75
2023/03/30 03:18:15;;;;;;;5.03;3.30;;;10.70;99.90;;;;;;5099565;28;20217;-75
2023/03/30 03:20:41;;;;;;;4.37;3.57;;;10.80;99.90;;;;;;5097947;28;20550;-75
2023/03/30 03:23:08;;;;;;;3.53;3.00;;;10.90;99.90;;;;;;5098851;28;20593;-75
2023/03/30 03:25:35;;;;;;;8.43;3.83;;;11.50;99.90;;;;;;5093293;28;20213;-75
2023/03/30 03:28:02;;;;;;;5.50;2.80;;;11.40;99.90;;;;;;5093497;28;20224;-75
2023/03/30 03:30:29;;;;;;;4.77;2.93;;;11.30;99.90;;;;;;5094881;28;20907;-75
2023/03/30 03:32:57;;;;;;;7.03;3.57;;;11.10;99.90;;;;;;5097303;28;20223;-75
2023/03/30 03:35:24;;;;;;;4.50;3.00;;;11.00;99.90;;;;;;5093441;28;20654;-75
2023/03/30 03:37:51;;;;;;;5.53;3.07;;;10.90;99.90;;;;;;5092626;28;20198;-75
2023/03/30 03:40:18;;;;;;;4.93;2.80;;;10.80;99.90;;;;;;5092507;28;20732;-75
2023/03/30 03:42:45;;;;;;;6.07;3.20;;;10.90;99.90;;;;;;5087122;28;20577;-75
2023/03/30 03:45:12;;;;;;;6.00;3.60;;;10.80;99.90;;;;;;5093061;28;20197;-75
2023/03/30 03:47:39;;;;;;;4.10;3.23;;;11.20;99.90;;;;;;5089576;28;20206;-75
2023/03/30 03:50:08;;;;;;;4.57;3.20;;;11.00;99.90;;;;;;5084252;28;20200;-75
2023/03/30 03:52:35;;;;;;;6.67;3.37;;;11.20;99.90;;;;;;5090567;28;20233;-75
2023/03/30 03:55:02;;;;;;;6.10;3.40;;;11.10;99.90;;;;;;5091252;28;20205;-75
2023/03/30 03:57:29;;;;;;;6.17;3.10;;;10.90;99.90;;;;;;5091476;28;20209;-75
2023/03/30 03:59:58;;;;;;;7.10;3.40;;;10.90;99.90;;;;;;5092444;28;20217;-75
2023/03/30 04:02:26;;;;;;;6.90;3.50;;;11.00;99.90;;;;;;5092780;28;20240;-75
2023/03/30 04:04:53;;;;;;;3.53;3.07;;;11.00;99.90;;;;;;5086817;28;20201;-75
2023/03/30 04:07:24;;;;;;;4.83;3.20;;;11.10;99.90;;;;;;5087768;28;20206;-75
2023/03/30 04:09:51;;;;;;;5.53;3.47;;;11.30;99.90;;;;;;5087634;28;20233;-75
2023/03/30 04:12:19;;;;;;;4.37;3.10;;;11.30;99.90;;;;;;5092770;28;20683;-75
2023/03/30 04:14:45;;;;;;;6.67;3.30;;;11.50;99.90;;;;;;5091983;28;20213;-75
2023/03/30 04:17:13;;;;;;;4.63;2.93;;;11.60;99.90;;;;;;5092241;28;20205;-75
2023/03/30 04:19:40;;;;;;;4.80;2.90;;;11.60;99.90;;;;;;5092421;28;20305;-75
2023/03/30 04:22:07;;;;;;;5.20;3.00;;;11.70;99.90;;;;;;5090821;28;20640;-75
2023/03/30 04:24:35;;;;;;;4.80;2.90;;;11.70;99.90;;;;;;5091310;28;20582;-75
2023/03/30 04:27:02;;;;;;;4.90;2.73;;;11.70;99.90;;;;;;5091373;28;20551;-75
2023/03/30 04:29:29;;;;;;;5.60;3.20;;;11.60;99.90;;;;;;5089316;28;20641;-75
2023/03/30 04:32:01;;;;;;;6.23;3.30;;;11.60;99.90;;;;;;5092357;28;20201;-75
2023/03/30 04:34:29;;;;;;;4.20;3.37;;;11.50;99.90;;;;;;5092279;28;20205;-75
2023/03/30 04:36:56;;;;;;;5.30;2.77;;;11.40;99.90;;;;;;5092035;28;20202;-75
2023/03/30 04:39:23;;;;;;;2.53;2.33;;;11.50;99.90;;;;;;5087651;28;20223;-75
2023/03/30 04:41:53;;;;;;;4.40;2.70;;;11.70;99.90;;;;;;5091736;28;20209;-75
2023/03/30 04:44:20;;;;;;;4.10;2.80;;;11.90;99.90;;;;;;5087512;28;20247;-75
2023/03/30 04:46:47;;;;;;;3.23;2.70;;;12.00;99.90;;;;;;5091856;28;20578;-75
2023/03/30 04:49:14;;;;;;;4.20;2.73;;;11.90;99.90;;;;;;5091431;28;20640;-75
2023/03/30 04:51:42;;;;;;;4.90;2.63;;;11.90;99.90;;;;;;5084744;28;20651;-75
2023/03/30 04:54:08;;;;;;;4.33;2.57;;;11.90;99.90;;;;;;5090860;28;20210;-75
2023/03/30 04:56:35;;;;;;;3.57;2.30;;;11.90;99.90;;;;;;5089188;28;20198;-75
2023/03/30 04:59:03;;;;;;;5.63;2.77;;;11.70;99.90;;;;;;5092141;28;20225;-75
2023/03/30 05:01:30;;;;;;;4.37;2.60;;;11.70;99.90;;;;;;5088601;28;20209;-75
2023/03/30 05:03:57;;;;;;;5.60;2.50;;;11.60;99.90;;;;;;5092028;28;20198;-75
2023/03/30 05:06:24;;;;;;;5.50;2.70;;;11.60;99.90;;;;;;5081471;28;20206;-75
2023/03/30 05:08:51;;;;;;;5.07;2.70;;;11.50;99.90;;;;;;5087101;28;20201;-75
2023/03/30 05:11:18;;;;;;;3.63;2.80;;;11.30;99.90;;;;;;5091859;28;20658;-75
2023/03/30 05:13:44;;;;;;;4.87;2.40;;;11.20;99.90;;;;;;5091690;28;20671;-75
2023/03/30 05:16:13;;;;;;;6.27;2.70;;;11.30;99.90;;;;;;5091582;28;20198;-75
2023/03/30 05:18:39;;;;;;;4.27;3.17;;;11.40;99.90;;;;;;5094696;28;20217;-75
2023/03/30 05:21:07;;;;;;;4.23;2.60;;;11.30;99.90;;;;;;5095147;28;20198;-75
2023/03/30 05:23:33;;;;;;;5.23;2.50;;;11.40;99.90;;;;;;5086803;28;20213;-75
2023/03/30 05:26:02;;;;;;;4.20;2.60;;;11.30;99.90;;;;;;5095824;28;20198;-75
2023/03/30 05:28:29;;;;;;;3.20;2.40;;;11.40;99.90;;;;;;5091365;28;20241;-75
2023/03/30 05:30:56;;;;;;;5.20;2.13;;;11.40;99.90;;;;;;5096065;28;20204;-75
2023/03/30 05:33:24;;;;;;;3.80;2.60;;;11.50;99.90;;;;;;5095756;28;20212;-75
2023/03/30 05:35:51;;;;;;;6.03;2.27;;;11.40;99.90;;;;;;5094693;28;20208;-75
2023/03/30 05:38:18;;;;;;;5.07;2.53;;;11.30;99.90;;;;;;5090981;28;20206;-75
2023/03/30 05:40:45;;;;;;;6.10;2.30;;;11.30;99.90;;;;;;5094762;28;20225;-75
2023/03/30 05:43:12;;;;;;;4.80;2.43;;;11.30;99.90;;;;;;5090359;28;20566;-75
2023/03/30 05:45:39;;;;;;;5.73;2.53;;;11.20;99.90;;;;;;5095963;28;20205;-75
2023/03/30 05:48:06;;;;;;;4.30;2.30;;;11.30;99.90;;;;;;5096116;28;20660;-75
2023/03/30 05:50:34;;;;;;;3.40;2.20;;;11.30;99.90;;;;;;5095455;28;20576;-75
2023/03/30 05:53:01;;;;;;;4.53;2.60;;;11.40;99.90;;;;;;5090232;28;20623;-75
2023/03/30 05:55:28;;;;;;;4.73;2.60;;;11.60;99.90;;;;;;5092416;28;20228;-76
2023/03/30 05:57:55;;;;;;;5.40;2.40;;;11.50;99.90;;;;;;5095748;28;20205;-75
2023/03/30 06:00:22;;;;;;;5.77;2.97;;;11.50;99.90;;;;;;5093972;28;20680;-75
2023/03/30 06:02:50;;;;;;;5.13;2.87;;;11.60;99.90;;;;;;5095128;28;20205;-76
2023/03/30 06:05:17;;;;;;;8.03;2.47;;;11.60;99.90;;;;;;5095358;28;20233;-75
2023/03/30 06:07:46;;;;;;;8.23;2.67;;;11.60;99.90;;;;;;5094699;28;20201;-75
2023/03/30 06:10:13;;;;;;;5.43;2.37;;;11.70;99.90;;;;;;5090462;28;20197;-75
2023/03/30 06:12:40;;;;;;;4.40;2.50;;;11.90;99.90;;;;;;5094281;28;20201;-75
2023/03/30 06:15:08;;;;;;;3.83;2.07;;;12.00;99.90;;;;;;5090345;28;20209;-75
2023/03/30 06:17:35;;;;;;;7.80;3.03;;;12.20;99.90;;;;;;5089852;28;20641;-75
2023/03/30 06:20:08;;;;;;;4.90;2.40;;;12.30;99.90;;;;;;5094996;28;20218;-75
2023/03/30 06:22:35;;;;;;;2.97;2.23;;;12.50;99.90;;;;;;5081600;28;20210;-75
2023/03/30 06:25:03;;;;;;;4.63;2.20;;;12.50;99.90;;;;;;5094857;28;20201;-74
2023/03/30 06:27:31;;;;;;;5.83;2.67;;;12.60;99.90;;;;;;5093843;28;20656;-75
2023/03/30 06:29:58;;;;;;;4.00;2.50;;;12.70;99.90;;;;;;5085739;28;20202;-75
2023/03/30 06:32:25;;;;;;;6.10;2.33;;;12.60;99.90;;;;;;5095199;28;20205;-75
2023/03/30 06:34:53;;;;;;;4.97;2.10;;;12.70;99.90;;;;;;5091564;28;20198;-75
2023/03/30 06:37:20;;;;;;;4.60;2.20;;;12.90;99.90;;;;;;5094328;28;20557;-75
2023/03/30 06:39:47;;;;;;;5.93;2.00;;;13.00;99.90;;;;;;5094093;28;20217;-75
2023/03/30 06:42:15;;;;;;;5.03;2.20;;;13.10;99.90;;;;;;5082417;28;20198;-75
2023/03/30 06:44:42;;;;;;;6.00;2.27;;;13.20;99.90;;;;;;5084319;28;20675;-75
2023/03/30 06:47:09;;;;;;;6.33;2.20;;;13.20;99.90;;;;;;5092454;28;20692;-75
2023/03/30 06:49:36;;;;;;;5.13;2.20;;;13.10;99.90;;;;;;5091843;28;20198;-75
2023/03/30 06:52:02;;;;;;;4.63;2.17;;;13.20;99.90;;;;;;5093507;28;20201;-75
2023/03/30 06:54:29;;;;;;;3.77;2.23;;;13.20;99.90;;;;;;5087384;28;20210;-75
2023/03/30 06:56:56;;;;;;;6.47;2.30;;;13.30;99.90;;;;;;5094089;28;20212;-76
2023/03/30 06:59:24;;;;;;;8.47;2.50;;;13.50;99.90;;;;;;5094044;28;20213;-75
2023/03/30 07:01:51;;;;;;;5.87;2.60;;;13.50;99.90;;;;;;5089415;28;20208;-75
2023/03/30 07:04:18;;;;;;;5.23;2.10;;;13.70;99.90;;;;;;5094090;28;20235;-75
2023/03/30 07:06:44;;;;;;;4.17;2.03;;;13.90;99.90;;;;;;5088266;28;20663;-75
2023/03/30 07:09:12;;;;;;;4.53;2.00;;;13.90;99.90;;;;;;5089149;28;20201;-75
2023/03/30 07:11:39;;;;;;;5.80;2.20;;;14.00;99.90;;;;;;5090245;28;20274;-75
2023/03/30 07:14:08;;;;;;;5.17;2.20;;;14.10;99.90;;;;;;5093953;28;20644;-75
2023/03/30 07:16:37;;;;;;;4.50;2.40;;;14.20;99.90;;;;;;5092679;28;20211;-75
2023/03/30 07:19:04;;;;;;;4.77;2.17;;;14.30;99.90;;;;;;5094095;28;20220;-75
2023/03/30 07:21:31;;;;;;;6.10;2.20;;;14.30;99.90;;;;;;5090362;28;20272;-75
2023/03/30 07:24:00;;;;;;;6.00;2.20;;;14.30;99.90;;;;;;5093004;28;20576;-75
2023/03/30 07:26:26;;;;;;;5.33;2.00;;;14.30;99.90;;;;;;5093766;28;20202;-75
2023/03/30 07:28:53;;;;;;;4.32;2.15;;;14.30;99.90;;;;;;5080824;28;20205;-74
2023/03/30 07:31:20;;;;;;;2.90;2.03;;;14.20;99.90;;;;;;5093946;28;20591;-75
2023/03/30 07:33:48;;;;;;;4.22;1.90;;;14.10;99.90;;;;;;5088785;28;20293;-75
2023/03/30 07:36:16;;;;;;;3.00;1.97;;;14.10;99.90;;;;;;5093111;28;20201;-75
2023/03/30 07:38:42;;;;;;;3.17;1.70;;;14.20;99.90;;;;;;5088052;28;20650;-75
2023/03/30 07:41:12;;;;;;;4.28;2.20;;;14.20;99.90;;;;;;5093405;28;20738;-75
2023/03/30 07:43:40;;;;;;;4.53;2.00;;;14.30;99.90;;;;;;5087970;28;20833;-74
2023/03/30 07:46:07;;;;;;;4.67;1.80;;;14.40;99.90;;;;;;5093014;28;20201;-75
2023/03/30 07:48:34;;;;;;;5.33;2.07;;;14.40;99.90;;;;;;5092814;28;20285;-75
2023/03/30 07:51:05;;;;;;;5.93;2.03;;;14.50;99.90;;;;;;5086965;28;20202;-75
2023/03/30 07:53:32;;;;;;;5.03;1.87;;;14.50;99.90;;;;;;5093128;28;20209;-75
2023/03/30 07:56:00;;;;;;;3.50;2.25;;;14.60;99.90;;;;;;5090448;28;20202;-75
2023/03/30 07:58:27;;;;;;;3.40;1.87;;;14.80;99.90;;;;;;5089220;28;20212;-75
2023/03/30 08:00:55;;;;;;;4.85;2.28;;;14.90;99.90;;;;;;5086089;28;20586;-75
2023/03/30 08:03:22;;;;;;;4.28;2.05;;;14.90;99.90;;;;;;5088478;28;20202;-75
2023/03/30 08:05:53;;;;;;;2.40;2.08;;;14.90;99.90;;;;;;5088500;28;20216;-75
2023/03/30 08:08:22;;;;;;;3.90;2.63;;;15.20;99.90;;;;;;5089736;28;20210;-75
2023/03/30 08:10:48;;;;;;;5.03;2.33;;;15.60;99.90;;;;;;5091986;28;20209;-75
2023/03/30 08:13:15;;;;;;;6.30;2.30;;;16.10;99.90;;;;;;5089968;28;20197;-75
2023/03/30 08:15:42;;;;;;;4.72;2.95;;;16.70;99.90;;;;;;5090731;28;20206;-75
2023/03/30 08:18:11;;;;;;;4.43;2.35;;;16.90;99.90;;;;;;5090936;28;20201;-75
2023/03/30 08:20:40;;;;;;;4.95;2.10;;;16.50;99.90;;;;;;5082334;28;20300;-75
2023/03/30 08:23:07;;;;;;;4.20;2.17;;;16.40;99.90;;;;;;5092078;28;20217;-75
2023/03/30 08:25:36;;;;;;;4.93;2.45;;;16.40;99.90;;;;;;5092846;28;20209;-75
2023/03/30 08:28:04;;;;;;;5.85;2.60;;;16.60;99.90;;;;;;5091397;28;20266;-75
2023/03/30 08:30:32;;;;;;;3.55;2.33;;;16.80;99.90;;;;;;5089768;28;20714;-74
2023/03/30 08:32:58;;;;;;;5.05;2.55;;;16.80;99.90;;;;;;5092465;28;20194;-75
2023/03/30 08:35:25;;;;;;;4.45;2.30;;;16.70;99.90;;;;;;5088672;28;20201;-75
2023/03/30 08:37:52;;;;;;;3.08;2.17;;;16.60;99.90;;;;;;5092281;28;20224;-75
2023/03/30 08:40:20;;;;;;;5.43;2.53;;;16.40;99.90;;;;;;5092316;28;20679;-75
2023/03/30 08:43:27;;;;;;;5.88;2.75;;;16.30;99.90;;;;;;5089051;28;20206;-75
2023/03/30 08:45:55;;;;;;;5.05;2.47;;;16.70;99.90;;;;;;5077087;28;20205;-75
2023/03/30 08:48:24;;;;;;;5.05;2.70;;;17.30;99.90;;;;;;5089573;28;20214;-75
2023/03/30 08:50:56;;;;;;;5.95;2.25;;;17.60;99.90;;;;;;5093863;28;20197;-75
2023/03/30 08:53:23;;;;;;;3.72;2.05;;;17.50;99.90;;;;;;5086242;28;20217;-75
2023/03/30 08:55:53;;;;;;;4.05;2.67;;;17.80;99.90;;;;;;5096520;28;20578;-74
2023/03/30 08:58:30;;;;;;;5.60;2.22;;;17.60;99.90;;;;;;5097604;28;20205;-75
2023/03/30 09:01:02;;;;;;;6.70;2.50;;;17.30;99.90;;;;;;5089026;28;20221;-75
2023/03/30 09:03:34;;;;;;;6.93;2.45;;;17.20;99.90;;;;;;5097114;28;20197;-74
2023/03/30 09:06:08;;;;;;;5.30;2.55;;;17.30;99.90;;;;;;5091062;28;20205;-75
2023/03/30 09:08:36;;;;;;;5.20;2.20;;;17.10;99.90;;;;;;5091612;28;20687;-74
2023/03/30 09:11:10;;;;;;;5.68;2.80;;;17.10;99.90;;;;;;5092121;28;20672;-74
2023/03/30 09:13:39;;;;;;;5.55;2.47;;;17.00;99.90;;;;;;5093945;28;20201;-75
2023/03/30 09:16:16;;;;;;;5.90;2.40;;;17.10;99.90;;;;;;5091735;28;20288;-75
2023/03/30 09:18:46;;;;;;;2.55;1.88;;;16.90;99.90;;;;;;5094254;28;20607;-74
2023/03/30 09:21:13;;;;;;;4.25;2.47;;;17.10;99.90;;;;;;5090097;28;20217;-75
2023/03/30 09:23:40;;;;;;;3.40;1.95;;;17.00;99.90;;;;;;5089322;28;20563;-74
2023/03/30 09:26:20;;;;;;;4.13;2.33;;;16.90;99.90;;;;;;5095895;28;20208;-74
2023/03/30 09:28:57;;;;;;;4.35;2.20;;;16.80;99.90;;;;;;5094964;28;20201;-74
2023/03/30 09:31:32;;;;;;;4.07;1.90;;;16.80;99.90;;;;;;5093843;28;20659;-74
2023/03/30 09:34:03;;;;;;;4.38;1.67;;;16.80;99.90;;;;;;5088566;28;20213;-74
2023/03/30 09:36:36;;;;;;;6.57;1.95;;;16.80;99.90;;;;;;5083745;28;20206;-74
2023/03/30 09:39:09;;;;;;;2.55;1.70;;;16.80;99.90;;;;;;5091057;28;20699;-74
2023/03/30 09:41:51;;;;;;;3.20;1.35;;;16.80;99.90;;;;;;5095655;28;20221;-74
2023/03/30 09:44:25;;;;;;;3.90;1.60;;;16.90;99.90;;;;;;5091240;28;20209;-74
2023/03/30 09:46:57;;;;;;;3.67;1.55;;;16.90;99.90;;;;;;5095118;28;20201;-74
2023/03/30 09:49:27;;;;;;;4.63;1.60;;;17.00;99.90;;;;;;5091005;28;20233;-74
2023/03/30 09:52:01;;;;;;;3.65;1.70;;;17.10;99.90;;;;;;5087336;28;20202;-74
2023/03/30 09:54:36;;;;;;;3.17;1.73;;;17.30;99.90;;;;;;5090611;28;20247;-75
2023/03/30 09:57:04;;;;;;;4.28;1.73;;;17.40;99.90;;;;;;5083710;28;20213;-75
2023/03/30 09:59:34;;;;;;;5.47;2.17;;;17.30;99.90;;;;;;5092093;28;20679;-75
2023/03/30 10:02:19;;;;;;;3.22;1.60;;;17.30;99.90;;;;;;5090681;28;20606;-75
2023/03/30 10:05:00;;;;;;;5.43;1.98;;;17.00;99.90;;;;;;5094058;28;20213;-75
2023/03/30 10:07:30;;;;;;;4.80;2.15;;;17.00;99.90;;;;;;5091140;28;20240;-74
2023/03/30 10:09:59;;;;;;;4.00;2.30;;;17.10;99.90;;;;;;5087220;28;20267;-74
2023/03/30 10:12:28;;;;;;;2.40;2.00;;;16.80;99.90;;;;;;5095025;28;20205;-75
2023/03/30 10:15:00;;;;;;;3.65;2.40;;;16.70;99.90;;;;;;5080698;28;20206;-75
2023/03/30 10:17:28;;;;;;;5.68;1.90;;;16.70;99.90;;;;;;5095218;28;20660;-75
2023/03/30 10:20:23;;;;;;;3.90;2.45;;;16.50;99.90;;;;;;5083988;28;20206;-75
2023/03/30 10:22:52;;;;;;;6.22;1.98;;;16.60;99.90;;;;;;5093883;28;20221;-75
2023/03/30 10:25:22;;;;;;;6.60;2.05;;;16.70;99.90;;;;;;5095058;28;20670;-75
2023/03/30 10:27:52;;;;;;;4.22;1.92;;;16.60;99.90;;;;;;5093619;28;20679;-75
2023/03/30 10:30:23;;;;;;;6.28;2.38;;;16.50;99.90;;;;;;5090254;28;20278;-75
2023/03/30 10:32:51;;;;;;;6.55;2.58;;;16.30;99.90;;;;;;5094718;28;20423;-75
2023/03/30 10:35:22;;;;;;;6.28;2.83;;;16.00;99.90;;;;;;5090845;28;20202;-75
2023/03/30 10:37:52;;;;;;;6.72;2.83;;;15.50;99.90;;;;;;5094876;28;20210;-75
2023/03/30 10:40:21;;;;;;;5.40;3.25;;;14.90;99.90;;;;;;5091946;28;20226;-74
2023/03/30 10:42:54;;;;;;;3.53;2.50;;;14.30;99.90;;;;;;5088844;28;20206;-75
2023/03/30 10:45:28;;;;;;;6.72;3.08;;;14.20;99.90;;;;;;5094563;28;20202;-75
2023/03/30 10:48:09;;;;;;;6.25;2.70;;;14.40;99.90;;;;;;5082023;28;20209;-74
2023/03/30 10:50:47;;;;;;;9.18;3.28;;;14.70;99.90;;;;;;5092441;28;20204;-74
2023/03/30 10:53:31;;;;;;;5.50;2.90;;;14.70;99.90;;;;;;5093818;28;20205;-74
2023/03/30 10:56:05;;;;;;;6.32;2.53;;;14.40;99.90;;;;;;5069402;28;20327;-74
2023/03/30 10:58:45;;;;;;;7.63;2.88;;;14.30;99.90;;;;;;5086422;28;20584;-74
2023/03/30 11:01:21;;;;;;;2.08;1.17;;;14.10;99.90;;;;;;5094152;28;20262;-74
2023/03/30 11:03:54;;;;;;;3.93;1.10;;;13.10;99.90;;;;;;5087553;28;20205;-74
2023/03/30 11:06:25;;;;;;;3.77;1.70;;;12.60;99.90;;;;;;5087577;28;20209;-74
2023/03/30 11:08:54;;;;;;;2.27;0.90;;;12.40;99.90;;;;;;5093093;28;20213;-74
2023/03/30 11:11:23;;;;;;;2.43;0.90;;;12.30;99.90;;;;;;5090423;28;20539;-74
2023/03/30 11:13:53;;;;;;;3.07;1.40;;;12.50;99.90;;;;;;5092493;28;20276;-74
2023/03/30 11:16:25;;;;;;;5.70;1.77;;;12.80;99.90;;;;;;5088864;28;20213;-74
2023/03/30 11:18:56;;;;;;;3.90;1.17;;;13.20;99.90;;;;;;5092950;28;20256;-74
2023/03/30 11:21:31;;;;;;;2.47;1.30;;;13.80;99.90;;;;;;5089666;28;20220;-75
2023/03/30 11:24:02;;;;;;;8.10;1.65;;;14.50;99.90;;;;;;5085741;28;20203;-74
2023/03/30 11:26:35;;;;;;;5.50;1.13;;;14.80;99.90;;;;;;5093817;28;20208;-74
2023/03/30 11:29:23;;;;;;;2.30;1.17;;;14.80;99.90;;;;;;5093368;28;20666;-74
2023/03/30 11:31:59;;;;;;;5.17;1.20;;;14.50;99.90;;;;;;5093483;28;20205;-75
2023/03/30 11:34:33;;;;;;;4.53;1.52;;;14.30;99.90;;;;;;5092797;28;20201;-74
2023/03/30 11:37:07;;;;;;;2.93;1.43;;;14.30;99.90;;;;;;5085590;28;20198;-73
2023/03/30 11:39:36;;;;;;;1.77;1.05;;;14.20;99.90;;;;;;5088426;28;20293;-74
2023/03/30 11:42:15;;;;;;;4.25;1.20;;;14.20;99.90;;;;;;5091016;28;20263;-74
2023/03/30 11:44:42;;;;;;;5.20;1.53;;;14.30;99.90;;;;;;5091609;28;20208;-74
2023/03/30 11:47:42;;;;;;;3.55;1.40;;;14.50;99.90;;;;;;5092102;28;20198;-74
2023/03/30 11:50:23;;;;;;;2.77;1.40;;;14.50;99.90;;;;;;5081548;28;20617;-74
2023/03/30 11:52:59;;;;;;;5.00;1.25;;;14.60;99.90;;;;;;5091859;28;20591;-74
2023/03/30 11:55:47;;;;;;;5.25;1.83;;;14.60;99.90;;;;;;5082140;28;20205;-74
2023/03/30 11:58:22;;;;;;;2.70;1.33;;;15.00;99.90;;;;;;5089205;28;20212;-74
2023/03/30 12:01:02;;;;;;;4.20;1.60;;;15.30;99.90;;;;;;5092170;28;20225;-74
2023/03/30 12:03:39;;;;;;;6.18;1.80;;;15.30;99.90;;;;;;5068860;28;20293;-74
2023/03/30 12:06:30;;;;;;;5.47;2.10;;;15.80;99.90;;;;;;5085597;28;20208;-74
2023/03/30 12:09:20;;;;;;;6.65;1.60;;;15.90;99.90;;;;;;5088707;28;20558;-74
2023/03/30 12:11:51;;;;;;;3.78;1.80;;;16.00;99.90;;;;;;5088887;28;20201;-74
2023/03/30 12:14:41;;;;;;;3.97;1.77;;;16.00;99.90;;;;;;5092257;28;20210;-74
2023/03/30 12:17:32;;;;;;;7.95;2.15;;;16.30;99.90;;;;;;5085224;28;20212;-74
2023/03/30 12:20:07;;;;;;;6.05;1.90;;;16.40;99.90;;;;;;5086996;28;20194;-74
2023/03/30 12:22:40;;;;;;;5.25;2.45;;;16.40;99.90;;;;;;5090444;28;20221;-75
2023/03/30 12:25:22;;;;;;;4.22;1.77;;;16.30;99.90;;;;;;5082688;28;20199;-74
2023/03/30 12:27:58;;;;;;;3.40;2.00;;;15.80;99.90;;;;;;5087943;28;20205;-74
2023/03/30 12:30:27;;;;;;;3.45;1.80;;;15.70;99.90;;;;;;5091857;28;20717;-74
2023/03/30 12:33:00;;;;;;;5.18;1.83;;;15.70;99.90;;;;;;5092648;28;20205;-75
2023/03/30 12:35:52;;;;;;;5.45;1.70;;;15.70;99.90;;;;;;5092997;28;20218;-74
2023/03/30 12:38:24;;;;;;;5.45;2.70;;;15.50;99.90;;;;;;5074319;28;20670;-74
2023/03/30 12:41:03;;;;;;;4.30;1.50;;;15.50;99.90;;;;;;5092554;28;20194;-74
2023/03/30 12:43:39;;;;;;;4.03;1.50;;;15.50;99.90;;;;;;5085938;28;20236;-74
2023/03/30 12:46:12;;;;;;;4.50;1.77;;;15.40;99.90;;;;;;5092241;28;20193;-74
2023/03/30 12:48:45;;;;;;;2.95;1.65;;;15.40;99.90;;;;;;5089792;28;20259;-74
2023/03/30 12:51:22;;;;;;;6.28;1.90;;;15.20;99.90;;;;;;5093007;28;20200;-74
2023/03/30 12:54:01;;;;;;;3.92;1.17;;;15.10;99.90;;;;;;5073587;28;20211;-75
2023/03/30 12:56:36;;;;;;;2.88;1.33;;;15.00;99.90;;;;;;5093020;28;20240;-74
2023/03/30 12:59:41;;;;;;;8.10;1.73;;;14.90;99.90;;;;;;5086246;28;20193;-74
2023/03/30 13:02:32;;;;;;;4.95;1.80;;;14.90;99.90;;;;;;5076009;28;20457;-74
2023/03/30 13:04:58;;;;;;;4.40;1.92;;;14.80;99.90;;;;;;5083055;28;20198;-74
2023/03/30 13:07:30;;;;;;;5.30;2.03;;;14.70;99.90;;;;;;5087298;28;20208;-74
2023/03/30 13:09:59;;;;;;;2.03;1.08;;;14.60;99.90;;;;;;5084271;28;20202;-74
2023/03/30 13:12:37;;;;;;;1.33;1.23;;;14.60;99.90;;;;;;5091368;28;20201;-73